Flight Track Log - Related Links

Times and Time Zones

All times are in EST time to prevent confusion due to time zone crossing. See the SWA3636 flight status page for this flight to view local times or setup timezone preferences in your user account.

Time Position Orientation Groundspeed Altitude Reporting Facility
EST Latitude Longitude Course Direction KTS MPH feet Rate Location/Type
Mon 10:30:33 PM 35.0361 -106.5733 116° Southeast 165 190 6,800  Level Albuquerque Center
Mon 10:31:31 PM 34.9994 -106.5308 136° Southeast 223 257 9,000 3,227 Climbing Albuquerque Center
Mon 10:32:32 PM 34.9114 -106.4731 152° Southeast 328 377 13,200 4,049 Climbing Albuquerque Center
Mon 10:33:34 PM 34.8394 -106.3811 134° Southeast 374 430 17,300 3,854 Climbing Albuquerque Center
Mon 10:34:35 PM 34.7853 -106.2700 121° Southeast 395 455 21,100 3,463 Climbing Albuquerque Center
Mon 10:35:37 PM 34.7261 -106.1439 120° Southeast 425 489 24,400 3,122 Climbing Albuquerque Center
Mon 10:36:38 PM 34.6633 -106.0128 120° Southeast 445 512 27,500 3,148 Climbing Albuquerque Center
Mon 10:37:39 PM 34.5875 -105.8561 120° Southeast 457 526 30,800 2,585 Climbing Albuquerque Center
Mon 10:38:41 PM 34.5181 -105.7147 121° Southeast 474 545 32,800 2,244 Climbing Albuquerque Center
Mon 10:39:42 PM 34.4467 -105.5692 121° Southeast 492 566 35,400 2,098 Climbing Albuquerque Center
Mon 10:40:44 PM 34.3761 -105.4244 121° Southeast 496 571 37,100 1,512 Climbing Albuquerque Center
Mon 10:41:45 PM 34.3031 -105.2767 121° Southeast 503 579 38,500 1,279 Climbing Albuquerque Center
Mon 10:42:46 PM 34.2261 -105.1219 121° Southeast 523 602 39,700 1,220 Climbing Albuquerque Center
Mon 10:43:48 PM 34.1486 -104.9661 121° Southeast 535 616 41,000 634 Climbing Albuquerque Center
Mon 10:44:49 PM 34.0703 -104.8075 121° Southeast 543 625 41,000  Level Albuquerque Center
Mon 10:45:51 PM 33.9839 -104.6367 121° Southeast 544 626 41,000  Level Albuquerque Center
Mon 10:46:52 PM 33.9000 -104.4708 121° Southeast 540 621 41,000  Level Albuquerque Center
Mon 10:47:53 PM 33.8217 -104.3153 121° Southeast 542 624 41,000  Level Albuquerque Center
Mon 10:48:55 PM 33.7411 -104.1575 122° Southeast 550 633 41,000  Level Albuquerque Center
Mon 10:49:56 PM 33.6625 -104.0019 121° Southeast 545 627 41,000  Level Albuquerque Center
Mon 10:50:57 PM 33.5764 -103.8331 121° Southeast 549 632 41,000  Level Albuquerque Center
Mon 10:51:59 PM 33.4956 -103.6772 122° Southeast 550 633 41,000  Level Albuquerque Center
Mon 10:53:00 PM 33.4161 -103.5183 121° Southeast 555 639 41,000  Level Albuquerque Center
Mon 10:54:01 PM 33.3350 -103.3647 122° Southeast 552 635 41,000  Level Albuquerque Center
Mon 10:55:03 PM 33.2539 -103.2108 122° Southeast 550 633 41,000  Level Albuquerque Center
Mon 10:56:47 PM 33.1097 -102.9372 122° Southeast 542 624 41,000  Level Fort Center
Mon 10:57:48 PM 33.0292 -102.7836 122° Southeast 545 627 41,000  Level Fort Center
Mon 10:58:49 PM 32.9478 -102.6303 122° Southeast 547 629 41,000  Level Fort Center
Mon 10:59:50 PM 32.8669 -102.4769 122° Southeast 544 626 41,000  Level Fort Center
Mon 11:00:51 PM 32.7842 -102.3211 122° Southeast 548 631 41,000  Level Fort Center
Mon 11:01:52 PM 32.7006 -102.1661 123° Southeast 548 631 41,000  Level Fort Center
Mon 11:02:53 PM 32.6169 -102.0147 123° Southeast 544 626 41,000  Level Fort Center
Mon 11:03:54 PM 32.5350 -101.8633 123° Southeast 543 625 41,000  Level Fort Center
Mon 11:04:55 PM 32.4528 -101.7128 123° Southeast 544 626 41,000  Level Fort Center
Mon 11:05:56 PM 32.3717 -101.5639 123° Southeast 540 621 41,000  Level Fort Center
Mon 11:06:57 PM 32.2897 -101.4153 123° Southeast 541 623 41,000  Level Fort Center
Mon 11:07:58 PM 32.2075 -101.2678 123° Southeast 539 620 41,000  Level Fort Center
Mon 11:08:59 PM 32.1131 -101.0953 123° Southeast 539 620 41,000  Level Fort Center
Mon 11:10:00 PM 32.0303 -100.9461 123° Southeast 542 624 41,000  Level Fort Center
Mon 11:11:01 PM 31.9478 -100.8003 124° Southeast 539 620 41,000  Level Fort Center
Mon 11:12:02 PM 31.8664 -100.6531 123° Southeast 534 615 41,000  Level Fort Center
Mon 11:13:03 PM 31.7842 -100.5075 124° Southeast 540 621 41,000  Level Fort Center
Mon 11:14:04 PM 31.7008 -100.3617 124° Southeast 541 623 41,000  Level Fort Center
Mon 11:15:05 PM 31.6192 -100.2153 123° Southeast 538 619 41,000  Level Fort Center
Mon 11:16:06 PM 31.5356 -100.0675 124° Southeast 535 616 41,000  Level Fort Center
Mon 11:17:07 PM 31.4544 -99.9247 124° Southeast 542 624 41,000  Level Fort Center
Mon 11:18:08 PM 31.3714 -99.7803 124° Southeast 532 612 41,000  Level Fort Center
Mon 11:19:09 PM 31.2894 -99.6356 124° Southeast 531 611 41,000  Level Fort Center
Mon 11:20:10 PM 31.2356 -99.4758 111° Southeast 533 613 41,000  Level Fort Center
Mon 11:21:11 PM 31.2003 -99.3103 104° East 526 605 41,000  Level Fort Center
Mon 11:22:33 PM 31.1492 -99.0772 104° East 528 608 41,000  Level Houston Center
Mon 11:23:34 PM 31.1119 -98.9108 105° East 527 606 41,000  Level Houston Center
Mon 11:24:35 PM 31.0739 -98.7433 105° East 529 609 41,000  Level Houston Center
Mon 11:25:36 PM 31.0308 -98.5478 104° East 530 610 41,000  Level Houston Center
Mon 11:26:37 PM 30.9922 -98.3803 105° East 530 610 41,000  Level Houston Center
Mon 11:27:38 PM 30.9533 -98.2144 105° East 529 609 41,000  Level Houston Center
Mon 11:28:39 PM 30.9153 -98.0475 105° East 528 608 41,000 -496 Level Houston Center
Mon 11:29:39 PM 30.8753 -97.8803 106° East 532 612 40,000 -942 Descending Houston Center
Mon 11:30:40 PM 30.8353 -97.7106 105° East 540 621 39,100 -934 Descending Houston Center
Mon 11:31:41 PM 30.7856 -97.5442 109° East 546 628 38,100 -1,279 Descending Houston Center
Mon 11:32:42 PM 30.7172 -97.3867 117° Southeast 549 632 36,500 -1,525 Descending Houston Center
Mon 11:33:43 PM 30.6508 -97.2311 116° Southeast 543 625 35,000 -738 Descending Houston Center
Mon 11:34:44 PM 30.5856 -97.0772 116° Southeast 534 615 35,000 -992 Level Houston Center
Mon 11:35:44 PM 30.5178 -96.9214 117° Southeast 538 619 33,000 -2,628 Descending Houston Center
Mon 11:36:45 PM 30.4550 -96.7719 116° Southeast 523 602 29,700 -3,680 Descending Houston Center
Mon 11:36:59 PM 30.4358 -96.7317 119° Southeast 509 586 28,400 -4,918 Descending Houston Center
Mon 11:37:46 PM 30.3925 -96.6306 116° Southeast 497 572 24,700 -5,700 Descending Houston Center
Mon 11:37:59 PM 30.3717 -96.5861 119° Southeast 478 550 22,700 -5,508 Descending Houston Center
Mon 11:38:47 PM 30.3314 -96.4922 116° Southeast 484 557 19,100 -5,284 Descending Houston Center
Mon 11:39:06 PM 30.3047 -96.4364 119° Southeast 471 542 16,800 -4,918 Descending Houston Center
Mon 11:39:48 PM 30.2758 -96.3628 114° Southeast 449 517 14,100 -4,328 Descending Houston Center
Mon 11:40:07 PM 30.2525 -96.3117 118° Southeast 424 488 12,400 -3,100 Descending Houston Center
Mon 11:40:48 PM 30.2219 -96.2425 117° Southeast 422 486 11,000 -1,475 Descending Houston Center
Mon 11:41:08 PM 30.1928 -96.2022 130° Southeast 388 447 10,900 -984 Descending Houston Center
Mon 11:41:49 PM 30.1408 -96.1708 152° Southeast 370 426 10,000 -900 Descending Houston Center
Mon 11:42:08 PM 30.1022 -96.1497 155° Southeast 350 403 10,000  Level Houston Center
Mon 11:42:50 PM 30.0678 -96.1028 130° Southeast 354 407 10,000  Level Houston Center
Mon 11:43:03 PM 30.0511 -96.0664 118° Southeast 358 412 10,000 -100 Level Houston Center
Mon 11:43:50 PM 30.0222 -96.0042 118° Southeast 355 409 9,900 -304 Descending Houston Center
Mon 11:44:22 PM 29.9894 -95.9358 119° Southeast 329 379 9,600 -787 Descending Houston Center
Mon 11:44:51 PM 29.9775 -95.9106 119° Southeast 333 383 9,100 -1,612 Descending Houston Center
Mon 11:45:29 PM 29.9431 -95.8375 119° Southeast 315 362 7,800 -1,574 Descending Houston Center
Mon 11:45:52 PM 29.9356 -95.8228 120° Southeast 317 365 7,500 -1,500 Descending Houston Center
Mon 11:46:05 PM 29.9203 -95.7919 120° Southeast 313 360 6,900 -2,000 Descending Houston Center
Mon 11:46:52 PM 29.8878 -95.7214 118° Southeast 302 348 5,500 -1,420 Descending Houston Center
Mon 11:48:00 PM 29.8043 -95.5715 123° Southeast  Level FlightAware
Mon 11:48:54 PM 29.8092 -95.5575 123° Southeast 292 336 2,900  Level Houston Center
Mon 11:49:31 PM 29.7900 -95.5111 115° Southeast 262 302 2,500 -730 Descending Houston Center
Mon 11:50:08 PM 29.7753 -95.4622 109° East 255 293 2,000 -357 Descending Houston Center
Mon 11:50:55 PM 29.7556 -95.4100 113° Southeast 254 292 2,000  Level Houston Center
Mon 11:51:09 PM 29.7442 -95.3986 139° Southeast 219 252 2,000 -98 Level Houston Center
Mon 11:51:56 PM 29.7164 -95.3633 132° Southeast 222 255 1,900 -333 Descending Houston Center
Mon 11:52:03 PM 29.7111 -95.3594 147° Southeast 154 177 1,700 -700 Descending Houston Center
Mon 11:52:56 PM 29.6886 -95.3300 131° Southeast 178 205 1,200 -608 Descending Houston Center
Mon 11:53:22 PM 29.6781 -95.3175 134° Southeast 127 146 900 -689 Descending Houston Center
Mon 11:53:57 PM 29.6658 -95.3028 134° Southeast 143 165 500 -667 Descending Houston Center
Mon 11:54:16 PM 29.6569 -95.2936 138° Southeast 128 147 300 33,934 Descending Houston Center
Mon 11:54:58 PM 29.6411 -95.2731 132° Southeast 130 150 35,000 49,571 Climbing Houston Center
Mon 11:56:00 PM 29.6333 -95.2667 122° Southeast  Level FlightAware

Login

Don't have an account? Register now (free) for customized features, flight alerts, and more!